Time;durP1;ratioP1;P1;durP2;ratioP2;P2;SDS_P1;SDS_P2;PMS_P1;PMS_P2;Temp;Humidity;BMP_temperature;BMP_pressure;BME280_temperature;BME280_humidity;BME280_pressure;Samples;Min_cycle;Max_cycle;Signal;HPM_P1;HPM_P2
2022/01/27 00:05:04;;;;;;;141.10;38.65;;;5.20;99.90;;;;;;5040644;28;20136;-73
2022/01/27 00:07:32;;;;;;;127.30;37.83;;;5.20;99.90;;;;;;5077440;28;20036;-73
2022/01/27 00:12:41;;;;;;;148.30;42.92;;;5.20;99.90;;;;;;5065330;28;20438;-70
2022/01/27 00:15:12;;;;;;;137.63;38.58;;;5.20;99.90;;;;;;5075236;28;20367;-71
2022/01/27 00:17:43;;;;;;;140.82;39.85;;;5.20;99.90;;;;;;5054577;28;20040;-72
2022/01/27 00:20:09;;;;;;;138.20;37.35;;;5.20;99.90;;;;;;5067272;28;20048;-73
2022/01/27 00:22:34;;;;;;;139.90;39.65;;;5.20;99.90;;;;;;5058911;28;20055;-73
2022/01/27 00:25:02;;;;;;;131.40;38.90;;;5.20;99.90;;;;;;5068548;28;20036;-73
2022/01/27 00:27:28;;;;;;;134.45;37.88;;;5.20;99.90;;;;;;5059640;28;20120;-76
2022/01/27 00:29:54;;;;;;;121.82;36.85;;;5.20;99.90;;;;;;5061660;28;20131;-73
2022/01/27 00:32:19;;;;;;;136.25;37.33;;;5.20;99.90;;;;;;5059798;28;20368;-74
2022/01/27 00:34:45;;;;;;;135.48;38.28;;;5.10;99.90;;;;;;5063451;28;20043;-72
2022/01/27 00:37:10;;;;;;;129.73;36.47;;;5.20;99.90;;;;;;5073221;28;20476;-76
2022/01/27 00:39:36;;;;;;;138.23;42.30;;;5.20;99.90;;;;;;5082161;28;20072;-73
2022/01/27 00:42:01;;;;;;;134.68;41.28;;;5.20;99.90;;;;;;5087090;28;20047;-76
2022/01/27 00:44:27;;;;;;;132.63;36.95;;;5.20;99.90;;;;;;5082984;28;20068;-71
2022/01/27 00:46:52;;;;;;;122.10;36.78;;;5.20;99.90;;;;;;5087307;28;20044;-69
2022/01/27 00:49:18;;;;;;;124.97;36.38;;;5.30;99.90;;;;;;5074727;28;20398;-70
2022/01/27 00:51:46;;;;;;;122.85;38.20;;;5.20;99.90;;;;;;5070934;28;20048;-73
2022/01/27 00:54:19;;;;;;;137.45;38.17;;;5.30;99.90;;;;;;5066686;28;20036;-73
2022/01/27 00:56:54;;;;;;;128.20;38.35;;;5.20;99.90;;;;;;5072939;28;20048;-73
2022/01/27 00:59:31;;;;;;;119.72;33.10;;;5.30;99.90;;;;;;5068964;28;20037;-70
2022/01/27 01:04:36;;;;;;;123.82;34.53;;;5.30;99.90;;;;;;5087233;28;20048;-72
2022/01/27 01:07:02;;;;;;;122.05;34.38;;;5.30;99.90;;;;;;5083841;28;20043;-72
2022/01/27 01:20:01;;;;;;;117.05;35.80;;;5.40;99.90;;;;;;5069163;28;20047;-73
2022/01/27 01:31:46;;;;;;;130.25;36.17;;;5.40;99.90;;;;;;4960970;28;20049;-72
2022/01/27 01:34:10;;;;;;;135.30;40.53;;;5.40;99.90;;;;;;5051198;28;20049;-73
2022/01/27 01:36:37;;;;;;;118.70;34.25;;;5.30;99.90;;;;;;5065601;28;20084;-72
2022/01/27 01:39:06;;;;;;;132.98;38.65;;;5.30;99.90;;;;;;5075537;28;20085;-75
2022/01/27 01:41:32;;;;;;;116.43;34.97;;;5.30;99.90;;;;;;5076314;28;20123;-73
2022/01/27 01:43:58;;;;;;;124.13;38.38;;;5.30;99.90;;;;;;5072690;28;20040;-73
2022/01/27 01:46:24;;;;;;;129.65;39.55;;;5.30;99.90;;;;;;5080544;28;20044;-72
2022/01/27 01:48:49;;;;;;;121.63;35.40;;;5.20;99.90;;;;;;5078510;28;20417;-71
2022/01/27 01:51:27;;;;;;;132.05;37.80;;;5.30;99.90;;;;;;5084579;28;20440;-72
2022/01/27 01:53:53;;;;;;;131.50;38.47;;;5.20;99.90;;;;;;5074938;28;20441;-72
2022/01/27 01:56:19;;;;;;;136.27;39.13;;;5.20;99.90;;;;;;5082866;28;20040;-70
2022/01/27 01:58:45;;;;;;;123.80;37.42;;;5.20;99.90;;;;;;5077837;28;20043;-72
2022/01/27 02:01:11;;;;;;;131.63;35.40;;;5.30;99.90;;;;;;5068181;28;20398;-71
2022/01/27 02:03:36;;;;;;;123.57;35.05;;;5.20;99.90;;;;;;5062744;28;20054;-74
2022/01/27 02:06:02;;;;;;;135.18;36.63;;;5.20;99.90;;;;;;5064289;28;20745;-74
2022/01/27 02:08:40;;;;;;;130.63;38.22;;;5.20;99.90;;;;;;5092693;28;20037;-72
2022/01/27 02:19:22;;;;;;;137.65;38.50;;;5.20;99.90;;;;;;5080082;28;20105;-74
2022/01/27 02:21:57;;;;;;;134.38;36.92;;;5.10;99.90;;;;;;5082086;28;20036;-74
2022/01/27 02:24:25;;;;;;;138.13;36.25;;;5.10;99.90;;;;;;5086623;28;20544;-73
2022/01/27 02:26:51;;;;;;;140.02;37.92;;;5.00;99.90;;;;;;5076395;28;20256;-71
2022/01/27 02:29:18;;;;;;;129.30;35.25;;;5.00;99.90;;;;;;5079922;28;20134;-69
2022/01/27 02:31:45;;;;;;;145.73;40.30;;;4.90;99.90;;;;;;5080741;28;20051;-71
2022/01/27 02:34:11;;;;;;;141.50;42.13;;;4.90;99.90;;;;;;5077538;28;20093;-69
2022/01/27 02:36:36;;;;;;;151.27;39.20;;;4.90;99.90;;;;;;5058484;28;20045;-70
2022/01/27 02:39:04;;;;;;;145.38;41.30;;;4.90;99.90;;;;;;5063506;28;20044;-75
2022/01/27 02:41:36;;;;;;;150.60;39.58;;;5.00;99.90;;;;;;5064243;28;20482;-77
2022/01/27 02:44:02;;;;;;;142.43;41.72;;;5.00;99.90;;;;;;5093354;28;20395;-75
2022/01/27 02:46:36;;;;;;;139.55;37.88;;;5.10;99.90;;;;;;5068692;28;20095;-74
2022/01/27 02:49:02;;;;;;;148.55;42.58;;;5.10;99.90;;;;;;5069529;28;20067;-76
2022/01/27 02:51:27;;;;;;;141.82;38.90;;;5.10;99.90;;;;;;5076230;28;20622;-71
2022/01/27 02:53:57;;;;;;;139.07;39.22;;;5.10;99.90;;;;;;5062184;28;20460;-70
2022/01/27 02:56:22;;;;;;;147.85;38.97;;;5.10;99.90;;;;;;5068727;28;20398;-70
2022/01/27 02:58:48;;;;;;;142.07;38.75;;;5.10;99.90;;;;;;5073852;28;20043;-75
2022/01/27 03:01:18;;;;;;;141.65;41.10;;;5.10;99.90;;;;;;5077443;28;20427;-72
2022/01/27 03:03:44;;;;;;;147.88;37.25;;;5.10;99.90;;;;;;5079285;28;20041;-71
2022/01/27 03:06:09;;;;;;;137.38;39.97;;;5.10;99.90;;;;;;5082850;28;20177;-71
2022/01/27 03:08:35;;;;;;;132.32;37.80;;;5.10;99.90;;;;;;5072286;28;21135;-71
2022/01/27 03:11:10;;;;;;;147.10;40.95;;;5.10;99.90;;;;;;5061198;28;20760;-77
2022/01/27 03:13:37;;;;;;;137.90;38.13;;;5.10;99.90;;;;;;5067830;28;20036;-72
2022/01/27 03:16:06;;;;;;;143.18;38.00;;;5.20;99.90;;;;;;5074528;28;20102;-71
2022/01/27 03:18:32;;;;;;;142.98;47.47;;;5.20;99.90;;;;;;5047974;28;20032;-69
2022/01/27 03:20:57;;;;;;;139.23;37.67;;;5.20;99.90;;;;;;5067050;28;20036;-74
2022/01/27 03:23:23;;;;;;;150.55;41.40;;;5.20;99.90;;;;;;5072216;28;20032;-73
2022/01/27 03:25:49;;;;;;;138.98;45.67;;;5.30;99.90;;;;;;5084777;28;20086;-72
2022/01/27 03:28:15;;;;;;;138.48;44.55;;;5.30;99.90;;;;;;5066330;28;20696;-72
2022/01/27 03:30:41;;;;;;;143.07;38.42;;;5.30;99.90;;;;;;5058968;28;20044;-74
2022/01/27 03:33:06;;;;;;;130.35;35.28;;;5.30;99.90;;;;;;5085060;28;20039;-71
2022/01/27 03:35:32;;;;;;;144.00;40.55;;;5.30;99.90;;;;;;5082587;28;20055;-77
2022/01/27 03:37:58;;;;;;;135.55;37.67;;;5.30;99.90;;;;;;5079336;28;20051;-71
2022/01/27 03:40:23;;;;;;;156.10;45.45;;;5.30;99.90;;;;;;5073416;28;20462;-77
2022/01/27 03:43:03;;;;;;;148.05;44.22;;;5.30;99.90;;;;;;5076973;28;20035;-73
2022/01/27 03:45:29;;;;;;;148.50;41.05;;;5.30;99.90;;;;;;5074815;28;20047;-71
2022/01/27 03:47:55;;;;;;;134.52;36.17;;;5.30;99.90;;;;;;5075696;28;20044;-74
2022/01/27 03:50:21;;;;;;;146.48;37.95;;;5.30;99.90;;;;;;5078881;28;20513;-69
2022/01/27 03:52:46;;;;;;;148.88;42.33;;;5.30;99.90;;;;;;5083026;28;20037;-70
2022/01/27 03:55:12;;;;;;;146.20;40.03;;;5.30;99.90;;;;;;5075769;28;20464;-71
2022/01/27 03:57:37;;;;;;;152.85;38.83;;;5.20;99.90;;;;;;5066852;28;20033;-71
2022/01/27 04:00:07;;;;;;;151.02;38.17;;;5.20;99.90;;;;;;5061443;28;20443;-73
2022/01/27 04:02:35;;;;;;;143.40;40.72;;;5.20;99.90;;;;;;5075236;28;20045;-73
2022/01/27 04:05:01;;;;;;;140.82;37.72;;;5.20;99.90;;;;;;5068025;28;20120;-70
2022/01/27 04:07:26;;;;;;;144.05;38.65;;;5.20;99.90;;;;;;5067712;28;20123;-73
2022/01/27 04:09:52;;;;;;;141.75;40.15;;;5.20;99.90;;;;;;5064731;28;20040;-74
2022/01/27 04:12:18;;;;;;;127.13;36.42;;;5.20;99.90;;;;;;5071067;28;20097;-71
2022/01/27 04:14:43;;;;;;;138.70;41.45;;;5.20;99.90;;;;;;5073355;28;20039;-75
2022/01/27 04:17:09;;;;;;;146.55;45.03;;;5.20;99.90;;;;;;5072323;28;20403;-74
2022/01/27 04:19:35;;;;;;;154.30;38.45;;;5.30;99.90;;;;;;5055199;28;20506;-76
2022/01/27 04:22:02;;;;;;;147.55;43.50;;;5.40;99.90;;;;;;5065079;28;20051;-73
2022/01/27 04:24:28;;;;;;;128.05;35.17;;;5.40;99.90;;;;;;5074241;28;20368;-71
2022/01/27 04:27:02;;;;;;;147.80;42.72;;;5.40;99.90;;;;;;5079778;28;20115;-71
2022/01/27 04:29:28;;;;;;;142.75;42.30;;;5.50;99.90;;;;;;5069528;28;20044;-69
2022/01/27 04:31:54;;;;;;;136.60;37.80;;;5.50;99.90;;;;;;5069018;28;20040;-72
2022/01/27 04:34:20;;;;;;;143.82;40.38;;;5.50;99.90;;;;;;5081511;28;20028;-71
2022/01/27 04:36:46;;;;;;;143.38;44.50;;;5.50;99.90;;;;;;5085287;28;20492;-68
2022/01/27 04:42:48;;;;;;;139.60;37.95;;;5.60;99.90;;;;;;5054737;28;20040;-72
2022/01/27 04:44:41;;;;;;;139.35;35.13;;;5.60;99.90;;;;;;5055609;28;20037;-72
2022/01/27 04:47:13;;;;;;;146.25;44.08;;;5.60;99.90;;;;;;5060503;28;20037;-69
2022/01/27 04:49:39;;;;;;;138.02;37.30;;;5.60;99.90;;;;;;5069122;28;20112;-67
2022/01/27 04:52:06;;;;;;;133.43;35.55;;;5.60;99.90;;;;;;5065722;28;20127;-76
2022/01/27 04:54:39;;;;;;;141.23;39.03;;;5.60;99.90;;;;;;5069142;28;20045;-72
2022/01/27 04:57:06;;;;;;;152.35;43.65;;;5.60;99.90;;;;;;5061622;28;20123;-73
2022/01/27 04:59:37;;;;;;;151.15;44.33;;;5.60;99.90;;;;;;5062931;28;20041;-71
2022/01/27 05:02:08;;;;;;;120.03;34.55;;;5.60;99.90;;;;;;5063116;28;20080;-70
2022/01/27 05:04:40;;;;;;;134.70;37.40;;;5.60;99.90;;;;;;5056316;28;20258;-72
2022/01/27 05:07:05;;;;;;;143.20;36.63;;;5.60;99.90;;;;;;5069055;28;20394;-73
2022/01/27 05:09:31;;;;;;;130.15;39.63;;;5.60;99.90;;;;;;5075792;28;20038;-71
2022/01/27 05:12:08;;;;;;;137.68;37.10;;;5.60;99.90;;;;;;5085234;28;20098;-71
2022/01/27 05:14:34;;;;;;;136.52;36.83;;;5.60;99.90;;;;;;5063445;28;20036;-74
2022/01/27 05:16:59;;;;;;;137.88;34.88;;;5.70;99.90;;;;;;5044863;28;20044;-70
2022/01/27 05:19:25;;;;;;;138.43;39.30;;;5.70;99.90;;;;;;5070588;28;20416;-71
2022/01/27 05:21:50;;;;;;;140.18;36.58;;;5.70;99.90;;;;;;5060000;28;20070;-74
2022/01/27 05:24:17;;;;;;;141.13;42.80;;;5.70;99.90;;;;;;5078984;28;20050;-69
2022/01/27 05:26:42;;;;;;;130.93;40.20;;;5.80;99.90;;;;;;5062326;28;20049;-69
2022/01/27 05:29:09;;;;;;;132.82;43.30;;;5.80;99.90;;;;;;5069830;28;20097;-68
2022/01/27 05:31:36;;;;;;;128.45;34.20;;;5.80;99.90;;;;;;5061859;28;20369;-71
2022/01/27 05:34:02;;;;;;;130.30;37.03;;;5.90;99.90;;;;;;5063759;28;20036;-71
2022/01/27 05:36:27;;;;;;;126.65;34.55;;;5.90;99.90;;;;;;5074323;28;20044;-70
2022/01/27 05:38:53;;;;;;;139.77;36.00;;;5.90;99.90;;;;;;5086540;28;20032;-73
2022/01/27 05:41:18;;;;;;;111.13;31.17;;;5.90;99.90;;;;;;5070524;28;20114;-76
2022/01/27 05:43:44;;;;;;;121.90;37.53;;;5.90;99.90;;;;;;5044963;28;20193;-72
2022/01/27 05:46:10;;;;;;;119.55;35.70;;;5.90;99.90;;;;;;5073831;28;20043;-70
2022/01/27 05:48:36;;;;;;;130.52;39.63;;;5.90;99.90;;;;;;5085723;28;20518;-72
2022/01/27 05:51:02;;;;;;;118.05;33.92;;;5.90;99.90;;;;;;5070679;28;20479;-71
2022/01/27 05:53:32;;;;;;;129.70;33.55;;;5.90;99.90;;;;;;5070650;28;20048;-76
2022/01/27 05:55:58;;;;;;;141.65;39.28;;;5.90;99.90;;;;;;5069479;28;20048;-72
2022/01/27 05:58:25;;;;;;;145.63;42.03;;;5.80;99.90;;;;;;5060199;28;20068;-71
2022/01/27 06:00:50;;;;;;;131.23;38.75;;;5.80;99.90;;;;;;5064129;28;20040;-70
2022/01/27 06:03:16;;;;;;;144.20;39.55;;;5.70;99.90;;;;;;5065423;28;20036;-69
2022/01/27 06:05:42;;;;;;;154.55;41.92;;;5.60;99.90;;;;;;5068808;28;20082;-72
2022/01/27 06:08:07;;;;;;;148.00;39.65;;;5.60;99.90;;;;;;5071521;28;20048;-68
2022/01/27 06:10:34;;;;;;;182.70;46.05;;;5.60;99.90;;;;;;5067573;28;20047;-75
2022/01/27 06:12:59;;;;;;;161.52;41.75;;;5.60;99.90;;;;;;5082809;28;20046;-70
2022/01/27 06:15:26;;;;;;;163.48;38.53;;;5.50;99.90;;;;;;5070452;28;20032;-69
2022/01/27 06:17:52;;;;;;;166.05;43.03;;;5.50;99.90;;;;;;5060169;28;20047;-70
2022/01/27 06:20:19;;;;;;;169.93;39.33;;;5.50;99.90;;;;;;5072203;28;20050;-70
2022/01/27 06:22:46;;;;;;;158.88;43.60;;;5.50;99.90;;;;;;5058522;28;20066;-72
2022/01/27 06:25:13;;;;;;;179.93;41.92;;;5.50;99.90;;;;;;5072805;28;20037;-71
2022/01/27 06:27:39;;;;;;;204.82;49.35;;;5.50;99.90;;;;;;5073000;28;20045;-70
2022/01/27 06:30:06;;;;;;;181.38;39.38;;;5.40;99.90;;;;;;5071758;28;20512;-69
2022/01/27 06:32:33;;;;;;;181.45;44.70;;;5.40;99.90;;;;;;5066846;28;20047;-72
2022/01/27 06:34:58;;;;;;;181.95;44.97;;;5.40;99.90;;;;;;5072413;28;20116;-75
2022/01/27 06:37:24;;;;;;;195.77;41.17;;;5.40;99.90;;;;;;5054293;28;20155;-71
2022/01/27 06:39:50;;;;;;;209.35;46.92;;;5.40;99.90;;;;;;5071743;28;20551;-72
2022/01/27 06:42:15;;;;;;;193.82;43.20;;;5.40;99.90;;;;;;5083543;28;20490;-72
2022/01/27 06:44:41;;;;;;;212.57;43.63;;;5.40;99.90;;;;;;5091161;28;20052;-73
2022/01/27 06:47:06;;;;;;;193.73;40.65;;;5.40;99.90;;;;;;5052409;28;20036;-71
2022/01/27 06:49:32;;;;;;;191.10;44.22;;;5.40;99.90;;;;;;5070927;28;20044;-70
2022/01/27 06:51:58;;;;;;;218.60;49.53;;;5.40;99.90;;;;;;5077521;28;20040;-69
2022/01/27 06:54:23;;;;;;;186.77;39.20;;;5.40;99.90;;;;;;5067573;28;20033;-71
2022/01/27 06:56:49;;;;;;;219.98;46.72;;;5.40;99.90;;;;;;5065571;28;20024;-72
2022/01/27 06:59:15;;;;;;;194.05;48.05;;;5.50;99.90;;;;;;5070853;28;20072;-70
2022/01/27 07:01:40;;;;;;;182.27;43.60;;;5.50;99.90;;;;;;5070989;28;20508;-71
2022/01/27 07:04:06;;;;;;;215.52;51.80;;;5.50;99.90;;;;;;5074922;28;20032;-73
2022/01/27 07:06:33;;;;;;;188.05;41.83;;;5.60;99.90;;;;;;5073020;28;20043;-72
2022/01/27 07:08:59;;;;;;;216.07;50.38;;;5.60;99.90;;;;;;5077753;28;20046;-72
2022/01/27 07:11:25;;;;;;;196.80;43.78;;;5.50;99.90;;;;;;5070419;28;20119;-71
2022/01/27 07:13:50;;;;;;;196.90;43.00;;;5.60;99.90;;;;;;5086367;28;20124;-70
2022/01/27 07:16:16;;;;;;;206.40;47.67;;;5.60;99.90;;;;;;5038909;28;20033;-71
2022/01/27 07:18:41;;;;;;;186.93;39.78;;;5.70;99.90;;;;;;5091538;28;20039;-71
2022/01/27 07:21:07;;;;;;;190.25;42.08;;;5.70;99.90;;;;;;5088291;28;20046;-77
2022/01/27 07:23:33;;;;;;;184.75;47.03;;;5.60;99.90;;;;;;5089415;28;20483;-74
2022/01/27 07:25:58;;;;;;;184.73;44.05;;;5.70;99.90;;;;;;5080027;28;20068;-75
2022/01/27 07:28:24;;;;;;;194.30;44.22;;;5.80;99.90;;;;;;5070461;28;20463;-68
2022/01/27 07:30:50;;;;;;;158.05;39.67;;;5.70;99.90;;;;;;5071698;28;20048;-74
2022/01/27 07:33:15;;;;;;;185.63;49.65;;;5.80;99.90;;;;;;5063950;28;20102;-71
2022/01/27 07:35:41;;;;;;;191.80;45.80;;;5.80;99.90;;;;;;5060665;28;20031;-74
2022/01/27 07:38:07;;;;;;;183.15;41.63;;;5.80;99.90;;;;;;5081192;28;20062;-74
2022/01/27 07:40:33;;;;;;;167.65;45.38;;;5.90;99.90;;;;;;5068900;28;20036;-75
2022/01/27 07:42:59;;;;;;;159.27;36.85;;;5.90;99.90;;;;;;5061805;28;20399;-73
2022/01/27 07:45:24;;;;;;;167.85;45.38;;;6.00;99.90;;;;;;5078091;28;20048;-72
2022/01/27 07:47:50;;;;;;;160.65;44.60;;;6.00;99.90;;;;;;5086202;28;20036;-77
2022/01/27 07:50:16;;;;;;;154.30;38.13;;;6.10;99.90;;;;;;5074393;28;20139;-72
2022/01/27 07:52:41;;;;;;;144.02;35.28;;;6.20;99.90;;;;;;5079378;28;20368;-74
2022/01/27 07:55:08;;;;;;;149.32;36.47;;;6.30;99.90;;;;;;5075238;28;20028;-78
2022/01/27 07:57:34;;;;;;;128.73;35.95;;;6.40;99.90;;;;;;5071221;28;20115;-74
2022/01/27 07:59:59;;;;;;;139.70;37.33;;;6.50;99.90;;;;;;5065122;28;20162;-73
2022/01/27 08:02:25;;;;;;;126.18;36.47;;;6.50;99.90;;;;;;5055933;28;20368;-71
2022/01/27 08:04:50;;;;;;;102.88;26.27;;;6.60;99.90;;;;;;5087360;28;20447;-72
2022/01/27 08:07:16;;;;;;;127.15;33.47;;;6.60;99.90;;;;;;5099313;28;20055;-76
2022/01/27 08:09:41;;;;;;;119.90;32.67;;;6.70;99.90;;;;;;5070631;28;20040;-73
2022/01/27 08:12:07;;;;;;;99.82;30.00;;;6.70;99.90;;;;;;5077164;28;20398;-73
2022/01/27 08:14:32;;;;;;;108.03;26.88;;;6.80;99.90;;;;;;5069669;28;20491;-72
2022/01/27 08:16:58;;;;;;;115.65;29.27;;;6.90;99.90;;;;;;5070907;28;20534;-74
2022/01/27 08:19:23;;;;;;;112.60;30.05;;;6.80;99.90;;;;;;5070742;28;20064;-73
2022/01/27 08:21:49;;;;;;;121.63;34.55;;;6.90;99.90;;;;;;5062706;28;20066;-72
2022/01/27 08:24:15;;;;;;;93.10;24.50;;;6.90;99.90;;;;;;5071371;28;20143;-72
2022/01/27 08:26:46;;;;;;;98.00;25.60;;;7.00;99.90;;;;;;5069581;28;20040;-75
2022/01/27 08:29:17;;;;;;;88.47;26.25;;;6.90;99.90;;;;;;5077301;28;20047;-73
2022/01/27 08:31:54;;;;;;;87.25;24.17;;;7.00;99.90;;;;;;5100675;28;20536;-75
2022/01/27 08:34:31;;;;;;;104.57;28.02;;;7.00;99.90;;;;;;5069796;28;20041;-73
2022/01/27 08:36:58;;;;;;;84.85;24.42;;;7.00;99.90;;;;;;5048732;28;20088;-72
2022/01/27 08:39:24;;;;;;;91.65;26.95;;;7.00;99.90;;;;;;5064582;28;20032;-71
2022/01/27 08:41:50;;;;;;;92.32;24.27;;;7.00;99.90;;;;;;5088690;28;20040;-75
2022/01/27 08:44:15;;;;;;;96.65;24.42;;;7.00;99.90;;;;;;5063050;28;20078;-73
2022/01/27 08:46:41;;;;;;;83.78;22.85;;;7.00;99.90;;;;;;5079474;28;20040;-74
2022/01/27 08:49:07;;;;;;;79.90;23.85;;;7.00;99.90;;;;;;5071287;28;20089;-70
2022/01/27 08:51:33;;;;;;;78.10;20.95;;;7.00;99.90;;;;;;5069589;28;20033;-75
2022/01/27 08:53:59;;;;;;;116.38;27.77;;;7.10;99.90;;;;;;5070260;28;20114;-70
2022/01/27 08:56:25;;;;;;;82.82;20.67;;;7.10;99.90;;;;;;5058344;28;20123;-74
2022/01/27 08:58:51;;;;;;;106.13;25.00;;;7.10;99.90;;;;;;5085277;28;20075;-74
2022/01/27 09:01:16;;;;;;;104.80;24.55;;;7.20;99.90;;;;;;5069988;28;20028;-70
2022/01/27 09:03:42;;;;;;;90.70;21.98;;;7.20;99.90;;;;;;5056941;28;20040;-71
2022/01/27 09:06:09;;;;;;;90.78;24.60;;;7.20;99.90;;;;;;5058101;28;20152;-74
2022/01/27 09:08:34;;;;;;;72.95;19.30;;;7.30;99.90;;;;;;5075353;28;20135;-73
2022/01/27 09:11:00;;;;;;;67.78;16.27;;;7.40;99.90;;;;;;5072114;28;20190;-74
2022/01/27 09:13:25;;;;;;;68.07;17.15;;;7.50;99.90;;;;;;5059752;28;20036;-72
2022/01/27 09:15:51;;;;;;;78.28;21.77;;;7.50;99.90;;;;;;5076005;28;20129;-74
2022/01/27 09:18:17;;;;;;;73.45;19.63;;;7.60;99.90;;;;;;5059966;28;20486;-76
2022/01/27 09:20:44;;;;;;;85.30;20.70;;;7.60;99.90;;;;;;5070943;28;20036;-73
2022/01/27 09:23:14;;;;;;;77.80;20.20;;;7.50;99.90;;;;;;5092012;28;20036;-73
2022/01/27 09:25:45;;;;;;;57.20;14.30;;;7.60;99.90;;;;;;5075004;28;20173;-73
2022/01/27 09:28:12;;;;;;;60.55;16.90;;;7.60;99.90;;;;;;5070897;28;20520;-74
2022/01/27 09:30:39;;;;;;;56.50;17.73;;;7.60;99.90;;;;;;5084166;28;20048;-74
2022/01/27 09:33:05;;;;;;;59.95;15.18;;;7.60;99.90;;;;;;5066206;28;20055;-71
2022/01/27 09:35:31;;;;;;;65.78;17.35;;;7.60;99.90;;;;;;5075844;28;20037;-72
2022/01/27 09:38:01;;;;;;;67.85;19.25;;;7.70;99.90;;;;;;5061130;28;20115;-73
2022/01/27 09:40:29;;;;;;;66.90;18.00;;;7.70;99.90;;;;;;5054574;28;20162;-74
2022/01/27 09:42:55;;;;;;;70.20;19.52;;;7.70;99.90;;;;;;5062867;28;20054;-71
2022/01/27 09:45:24;;;;;;;51.45;13.35;;;7.70;99.90;;;;;;5051788;28;20037;-74
2022/01/27 09:48:10;;;;;;;58.17;14.35;;;7.70;99.90;;;;;;5057600;28;20545;-73
2022/01/27 09:53:19;;;;;;;70.07;16.95;;;7.80;99.90;;;;;;5085995;28;20052;-75
2022/01/27 09:55:45;;;;;;;66.97;18.17;;;7.80;99.90;;;;;;5054479;28;20036;-75
2022/01/27 09:58:10;;;;;;;64.07;14.70;;;7.80;99.90;;;;;;5061962;28;20147;-76
2022/01/27 10:00:36;;;;;;;58.45;15.40;;;7.80;99.90;;;;;;5068648;28;20070;-73
2022/01/27 10:03:14;;;;;;;69.53;17.60;;;7.90;99.90;;;;;;5062153;28;20037;-70
2022/01/27 10:05:42;;;;;;;47.05;12.32;;;8.00;99.90;;;;;;5068076;28;20101;-72
2022/01/27 10:08:15;;;;;;;59.60;13.48;;;8.00;99.90;;;;;;5071953;28;20056;-74
2022/01/27 10:10:44;;;;;;;49.22;12.40;;;8.00;99.90;;;;;;5062020;28;20044;-74
2022/01/27 10:13:11;;;;;;;54.45;14.18;;;8.10;99.90;;;;;;5066147;28;20032;-75
2022/01/27 10:15:46;;;;;;;40.45;10.48;;;8.10;99.90;;;;;;5056248;28;20043;-75
2022/01/27 10:18:18;;;;;;;39.10;10.50;;;8.20;99.90;;;;;;5072719;28;20043;-77
2022/01/27 10:20:59;;;;;;;45.38;12.23;;;8.20;99.90;;;;;;5077800;28;20632;-71
2022/01/27 10:23:46;;;;;;;48.63;11.60;;;8.30;99.90;;;;;;5072315;28;20048;-74
2022/01/27 10:26:29;;;;;;;53.22;14.38;;;8.30;99.90;;;;;;5059521;28;20048;-73
2022/01/27 10:29:05;;;;;;;56.17;13.77;;;8.20;99.90;;;;;;5057729;28;20076;-75
2022/01/27 10:31:31;;;;;;;55.15;14.77;;;8.20;99.90;;;;;;5069812;28;20040;-70
2022/01/27 10:34:02;;;;;;;52.97;13.35;;;8.20;99.90;;;;;;5076220;28;20048;-74
2022/01/27 10:36:36;;;;;;;39.47;11.35;;;8.20;99.90;;;;;;5072530;28;20036;-69
2022/01/27 10:39:08;;;;;;;53.50;12.80;;;8.20;99.90;;;;;;5072181;28;20094;-74
2022/01/27 10:41:35;;;;;;;;;;;8.30;99.90;;;;;;5069932;28;20041;-76
2022/01/27 10:44:05;;;;;;;42.78;10.52;;;8.30;99.90;;;;;;5071339;28;19923;-73
2022/01/27 10:46:31;;;;;;;32.58;9.68;;;8.40;99.90;;;;;;5071755;28;20040;-72
2022/01/27 10:49:02;;;;;;;27.73;7.93;;;8.40;99.90;;;;;;5056476;28;20053;-74
2022/01/27 10:51:36;;;;;;;17.80;7.22;;;8.50;99.90;;;;;;5088787;28;20033;-72
2022/01/27 10:54:17;;;;;;;35.55;7.05;;;8.50;99.90;;;;;;5064128;28;20049;-71
2022/01/27 10:56:43;;;;;;;43.55;10.80;;;8.70;99.90;;;;;;5068322;28;20398;-75
2022/01/27 10:59:13;;;;;;;31.58;9.27;;;8.70;99.90;;;;;;5060054;28;20128;-71
2022/01/27 11:01:41;;;;;;;37.03;7.43;;;8.70;99.90;;;;;;5061745;28;20479;-74
2022/01/27 11:04:10;;;;;;;43.78;12.50;;;8.70;99.90;;;;;;5063198;28;20111;-73
2022/01/27 11:06:37;;;;;;;26.08;7.22;;;8.70;99.90;;;;;;5089915;28;20103;-72
2022/01/27 11:09:08;;;;;;;38.90;10.07;;;8.70;99.90;;;;;;5063272;28;20029;-74
2022/01/27 11:11:35;;;;;;;26.85;6.75;;;8.70;99.90;;;;;;5071382;28;20045;-72
2022/01/27 11:14:03;;;;;;;26.98;7.03;;;8.70;99.90;;;;;;5071032;28;20056;-72
2022/01/27 11:16:38;;;;;;;27.17;7.50;;;8.70;99.90;;;;;;5069617;28;20041;-71
2022/01/27 11:27:36;;;;;;;36.33;8.27;;;9.10;99.90;;;;;;5056476;28;20522;-73
2022/01/27 11:30:07;;;;;;;36.13;7.82;;;9.20;99.90;;;;;;5070635;28;20089;-72
2022/01/27 11:32:38;;;;;;;29.27;6.68;;;9.20;99.90;;;;;;5067793;28;20110;-71
2022/01/27 11:35:17;;;;;;;25.02;6.55;;;9.30;99.90;;;;;;5062280;28;20107;-74
2022/01/27 11:37:49;;;;;;;23.52;6.03;;;9.40;99.90;;;;;;5095607;28;20049;-73
2022/01/27 11:40:17;;;;;;;19.48;5.03;;;9.40;99.90;;;;;;5050714;28;20407;-74
2022/01/27 11:43:00;;;;;;;29.02;5.80;;;9.40;99.90;;;;;;5063687;28;20068;-72
2022/01/27 11:45:32;;;;;;;15.57;3.95;;;9.50;99.90;;;;;;5050734;28;20067;-71
2022/01/27 11:48:06;;;;;;;24.20;4.85;;;9.50;99.90;;;;;;5050368;28;20045;-71
2022/01/27 11:50:47;;;;;;;25.73;4.03;;;9.50;99.90;;;;;;5050232;28;20142;-72
2022/01/27 11:53:43;;;;;;;20.15;3.88;;;9.50;99.90;;;;;;5062502;28;20076;-73
2022/01/27 11:56:23;;;;;;;18.80;4.35;;;9.60;99.90;;;;;;5050605;28;20037;-73
2022/01/27 11:59:08;;;;;;;22.45;4.20;;;9.60;99.90;;;;;;5049752;28;20028;-74
2022/01/27 12:01:38;;;;;;;22.10;4.10;;;9.60;99.90;;;;;;5050340;28;20045;-71
2022/01/27 12:04:07;;;;;;;21.67;4.97;;;9.60;99.90;;;;;;5057783;28;20049;-75
2022/01/27 12:06:34;;;;;;;33.88;8.20;;;9.60;99.90;;;;;;5070324;28;20131;-74
2022/01/27 12:09:18;;;;;;;28.67;6.15;;;9.60;99.90;;;;;;5069346;28;20052;-72
2022/01/27 12:11:51;;;;;;;34.20;6.22;;;9.60;99.90;;;;;;5069269;28;20051;-74
2022/01/27 12:14:22;;;;;;;27.45;6.07;;;9.60;99.90;;;;;;5067930;28;20501;-75
2022/01/27 12:17:09;;;;;;;21.75;4.25;;;9.60;99.90;;;;;;5053331;28;20603;-72
2022/01/27 12:19:50;;;;;;;22.65;4.93;;;9.60;99.90;;;;;;5052974;28;20044;-74
2022/01/27 12:22:16;;;;;;;19.00;4.07;;;9.60;99.90;;;;;;5063584;28;20044;-71
2022/01/27 12:25:03;;;;;;;20.52;4.90;;;9.60;99.90;;;;;;5058867;28;20095;-73
2022/01/27 12:27:29;;;;;;;22.95;5.10;;;9.70;99.90;;;;;;5084047;28;20041;-72
2022/01/27 12:29:57;;;;;;;21.33;4.20;;;9.60;99.90;;;;;;5055053;28;20051;-72
2022/01/27 12:32:28;;;;;;;23.38;5.70;;;9.70;99.90;;;;;;5062058;28;20499;-73
2022/01/27 12:35:06;;;;;;;24.43;4.80;;;9.70;99.90;;;;;;5103328;28;20041;-74
2022/01/27 12:37:34;;;;;;;19.05;3.95;;;9.60;99.90;;;;;;5068434;28;20139;-75
2022/01/27 12:40:15;;;;;;;20.88;5.03;;;9.60;99.90;;;;;;5069967;28;20535;-76
2022/01/27 12:42:48;;;;;;;25.85;5.63;;;9.60;99.90;;;;;;5048930;28;20041;-74
2022/01/27 12:45:14;;;;;;;31.17;5.05;;;9.50;99.90;;;;;;5067356;28;20191;-72
2022/01/27 12:47:47;;;;;;;22.17;4.57;;;9.50;99.90;;;;;;5068569;28;20079;-72
2022/01/27 12:50:20;;;;;;;25.70;4.07;;;9.50;99.90;;;;;;5058196;28;20531;-73
2022/01/27 12:52:48;;;;;;;21.52;4.63;;;9.50;99.90;;;;;;5066064;28;20045;-73
2022/01/27 12:55:20;;;;;;;24.27;4.00;;;9.60;99.90;;;;;;5049920;28;20425;-74
2022/01/27 12:58:08;;;;;;;34.08;5.63;;;9.60;99.90;;;;;;5049555;28;20403;-72
2022/01/27 13:00:43;;;;;;;16.35;3.15;;;9.60;99.90;;;;;;5049310;28;20049;-73
2022/01/27 13:03:10;;;;;;;19.23;4.18;;;9.50;99.90;;;;;;5049629;28;20135;-73
2022/01/27 13:05:38;;;;;;;34.90;4.78;;;9.50;99.90;;;;;;5048825;28;20558;-72
2022/01/27 13:08:09;;;;;;;29.00;4.32;;;9.60;99.90;;;;;;5049452;28;20140;-73
2022/01/27 13:10:36;;;;;;;21.15;4.47;;;9.50;99.90;;;;;;5048728;28;20055;-73
2022/01/27 13:13:07;;;;;;;25.15;3.45;;;9.50;99.90;;;;;;5049437;28;20570;-72
2022/01/27 13:15:33;;;;;;;20.23;3.60;;;9.50;99.90;;;;;;5055879;28;20041;-74
2022/01/27 13:18:08;;;;;;;21.40;4.63;;;9.50;99.90;;;;;;5068795;28;20063;-73
2022/01/27 13:20:38;;;;;;;29.27;3.65;;;9.50;99.90;;;;;;5088805;28;20036;-76
2022/01/27 13:23:14;;;;;;;25.60;5.00;;;9.40;99.90;;;;;;5086421;28;20047;-73
2022/01/27 13:25:42;;;;;;;28.77;4.70;;;9.40;99.90;;;;;;5075984;28;20090;-76
2022/01/27 13:28:18;;;;;;;32.38;3.63;;;9.40;99.90;;;;;;5075249;28;20040;-73
2022/01/27 13:30:44;;;;;;;38.78;4.40;;;9.30;99.90;;;;;;5068440;28;20039;-71